プライア の空港の天気 - METARとTAF

プライア国際空港 ( GVNP / RAI ) - カーボベルデ サンティアゴ島, プライア
飛行場実況気象(Metar)
観測時間08/13 19:00 CVT (08/13 20:00 UTC)
風向・風速北 6m/s
視程10km以上
天気現象
全天の8割程度の雲 雲底高度 700m
気温26℃
湿度74%
気圧1011hPa
METARGVNP 132000Z 01012KT 9999 BKN023 26/21 Q1011 NOSIG
過去の天気等 Google飛行場航空写真 Wunderground天気予報

過去48時間のMETAR

飛行場予報(TAF)
発表時間: 8/13 16:00 CVT (8/13 17:00 UTC)
予報対象時間: 13日17時 CVT ~ 14日23時 CVT
風向・風速北 5m/s
視程10km以上
全天の4割程度の雲 雲底高度 430m
全天の8割程度の雲 雲底高度 610m
13日22時 CVT ~ 14日10時 CVT に 確率 40% で一時的に
視程4000m
天気現象雨霧雨
TAF GVNP 131700Z 1318/1424 35010KT 9999 SCT014 BKN020
PROB40 TEMPO 1323/1411 4000 RADZ